Decoded Metar for WAAA (UJUNG PANDANG in INDONESIA) (IATA:UPG) | Meteo·Mobile Aviation Weather
aviador You're here:

WAAA Decoded Metar

UJUNG PANDANG in INDONESIA
Report Time2018-08-21 22:00:00
UTC Time2018-08-21 22:16:39
Flight Rules vfr VFR
WindCalm
Visibility9000 m
Phenomena:N/A
Clouds:Few 021 Hf
Expected CloudBase > 400 ft AGL from Temp-Dew spread
CeilingNone
Temp21°C (ISA +6)
Dew Point20°C (94% RH)
QNH1010 hPa
Density Alt1,168 ft
Elevation46 ft
Report Wrong Elevation
Raw Report
METAR WAAA 212200Z 00000KT 9000 FEW021 21/20 Q1010 NOSIG=

Extra information for WAAA:More info

Metar Taf Metar & Taf Last 4 Metars F.Rules Stats Wind Profile Meteogram Temp Stats Airport Information Weather charts Add Link Nearby VenuesMetar ALERT Operation Metar Decoded Social comments